createdAt,value
2024-02-06T00:01:03.948Z,7.58
2024-02-06T00:03:40.516Z,7.51
2024-02-06T00:06:26.633Z,7.55
2024-02-06T00:11:54.998Z,7.57
2024-02-06T00:14:41.725Z,7.60
2024-02-06T00:20:02.183Z,7.58
2024-02-06T00:22:29.514Z,7.38
2024-02-06T00:24:57.266Z,7.53
2024-02-06T00:27:24.157Z,7.55
2024-02-06T00:29:53.413Z,7.60
2024-02-06T00:32:20.787Z,7.54
2024-02-06T00:34:48.238Z,7.42
2024-02-06T00:37:17.370Z,7.47
2024-02-06T00:39:44.626Z,7.50
2024-02-06T00:42:11.748Z,7.49
2024-02-06T00:44:41.424Z,7.51
2024-02-06T00:47:09.155Z,7.47
2024-02-06T00:49:37.455Z,7.41
2024-02-06T00:52:04.863Z,7.44
2024-02-06T00:54:32.376Z,7.45
2024-02-06T00:56:59.135Z,7.42
2024-02-06T00:59:26.031Z,7.39
2024-02-06T01:01:53.253Z,7.30
2024-02-06T01:04:20.443Z,7.36
2024-02-06T01:06:48.708Z,7.39
2024-02-06T01:09:15.548Z,7.42
2024-02-06T01:11:42.743Z,7.41
2024-02-06T01:14:09.495Z,7.31
2024-02-06T01:16:36.329Z,7.34
2024-02-06T01:19:03.398Z,7.41
2024-02-06T01:21:30.624Z,7.43
2024-02-06T01:23:57.696Z,7.42
2024-02-06T01:26:27.384Z,7.36
2024-02-06T01:28:54.267Z,7.42
2024-02-06T01:31:21.109Z,7.42
2024-02-06T01:33:47.987Z,7.41
2024-02-06T01:36:14.762Z,7.38
2024-02-06T01:38:42.356Z,7.28
2024-02-06T01:41:09.250Z,7.34
2024-02-06T01:43:36.072Z,7.47
2024-02-06T01:46:03.035Z,7.36
2024-02-06T01:48:31.105Z,7.42
2024-02-06T01:50:58.030Z,7.42
2024-02-06T01:53:25.133Z,7.38
2024-02-06T01:55:52.088Z,7.40
2024-02-06T01:58:19.576Z,7.35
2024-02-06T02:00:46.833Z,7.40
2024-02-06T02:03:14.323Z,7.41
2024-02-06T02:05:46.167Z,7.36
2024-02-06T02:08:13.622Z,7.38
2024-02-06T02:10:42.008Z,7.35
2024-02-06T02:13:08.823Z,7.37
2024-02-06T02:15:35.613Z,7.38
2024-02-06T02:18:02.503Z,7.40
2024-02-06T02:20:29.358Z,7.33
2024-02-06T02:22:56.069Z,7.30
2024-02-06T02:25:23.853Z,7.33
2024-02-06T02:27:51.602Z,7.28
2024-02-06T02:30:19.546Z,7.32
2024-02-06T02:32:46.627Z,7.31
2024-02-06T02:35:14.798Z,7.23
2024-02-06T02:37:41.636Z,7.26
2024-02-06T02:40:09.090Z,7.33
2024-02-06T02:42:35.907Z,7.32
2024-02-06T02:45:03.543Z,7.27
2024-02-06T02:47:30.329Z,7.32
2024-02-06T02:49:57.222Z,7.29
2024-02-06T02:52:24.057Z,7.22
2024-02-06T02:54:50.968Z,7.26
2024-02-06T02:57:17.815Z,7.25
2024-02-06T02:59:44.613Z,7.32
2024-02-06T03:02:11.854Z,7.27
2024-02-06T03:04:39.194Z,7.25
2024-02-06T03:07:06.422Z,7.28
2024-02-06T03:09:33.170Z,7.25
2024-02-06T03:11:59.929Z,7.27
2024-02-06T03:14:26.626Z,7.21
2024-02-06T03:16:53.369Z,7.27
2024-02-06T03:19:20.255Z,7.25
2024-02-06T03:21:47.603Z,7.18
2024-02-06T03:24:14.403Z,7.27
2024-02-06T03:26:41.550Z,7.25
2024-02-06T03:29:08.348Z,7.09
2024-02-06T03:31:35.454Z,7.01
2024-02-06T03:34:02.312Z,7.24
2024-02-06T03:36:29.200Z,7.26
2024-02-06T03:38:55.932Z,7.08
2024-02-06T03:41:22.745Z,7.29
2024-02-06T03:43:50.585Z,7.25
2024-02-06T03:46:17.391Z,7.21
2024-02-06T03:48:44.597Z,7.24
2024-02-06T03:51:11.392Z,7.24
2024-02-06T03:53:38.145Z,7.29
2024-02-06T03:56:05.171Z,7.24
2024-02-06T03:58:32.345Z,7.19
2024-02-06T04:00:59.450Z,7.34
2024-02-06T04:03:26.604Z,7.30
2024-02-06T04:05:54.238Z,7.03
2024-02-06T04:08:21.032Z,7.11
2024-02-06T04:10:47.959Z,7.28
2024-02-06T04:13:14.851Z,7.11
2024-02-06T04:15:41.717Z,7.19
2024-02-06T04:18:08.819Z,7.24
2024-02-06T04:20:35.899Z,7.27
2024-02-06T04:23:03.184Z,7.16
2024-02-06T04:25:30.097Z,7.23
2024-02-06T04:27:57.317Z,6.90
2024-02-06T04:30:24.827Z,7.32
2024-02-06T04:32:55.109Z,7.31
2024-02-06T04:35:22.351Z,7.18
2024-02-06T04:37:49.645Z,7.33
2024-02-06T04:40:16.697Z,7.28
2024-02-06T04:42:43.872Z,7.26
2024-02-06T04:45:12.543Z,7.26
2024-02-06T04:47:39.364Z,7.27
2024-02-06T04:50:07.419Z,7.34
2024-02-06T04:52:38.422Z,7.29
2024-02-06T04:55:08.064Z,7.17
2024-02-06T04:57:35.510Z,7.19
2024-02-06T05:00:02.446Z,7.30
2024-02-06T05:02:29.215Z,7.33
2024-02-06T05:04:56.191Z,7.27
2024-02-06T05:07:23.265Z,7.28
2024-02-06T05:09:50.564Z,7.23
2024-02-06T05:12:17.365Z,7.26
2024-02-06T05:14:44.610Z,7.22
2024-02-06T05:17:11.325Z,7.32
2024-02-06T05:19:42.391Z,7.25
2024-02-06T05:22:09.971Z,7.30
2024-02-06T05:24:36.938Z,7.31
2024-02-06T05:27:05.119Z,7.31
2024-02-06T05:29:32.985Z,7.19
2024-02-06T05:32:00.018Z,7.30
2024-02-06T05:34:27.607Z,7.20
2024-02-06T05:36:54.957Z,7.33
2024-02-06T05:39:21.746Z,7.28
2024-02-06T05:41:48.691Z,7.27
2024-02-06T05:44:15.589Z,7.20
2024-02-06T05:46:43.039Z,7.30
2024-02-06T05:49:09.914Z,7.26
2024-02-06T05:51:37.237Z,7.28
2024-02-06T05:54:04.235Z,7.31
2024-02-06T05:56:31.300Z,7.30
2024-02-06T05:58:58.083Z,7.31
2024-02-06T06:01:27.351Z,7.34
2024-02-06T06:03:54.242Z,7.30
2024-02-06T06:06:21.133Z,7.35
2024-02-06T06:08:49.038Z,7.35
2024-02-06T06:11:18.610Z,7.36
2024-02-06T06:13:45.407Z,7.34
2024-02-06T06:16:12.188Z,7.41
2024-02-06T06:18:38.956Z,7.36
2024-02-06T06:21:05.808Z,7.42
2024-02-06T06:23:32.920Z,7.35
2024-02-06T06:26:02.313Z,7.44
2024-02-06T06:28:29.662Z,7.43
2024-02-06T06:30:56.485Z,7.30
2024-02-06T06:33:23.404Z,7.35
2024-02-06T06:35:50.218Z,7.38
2024-02-06T06:38:17.000Z,7.50
2024-02-06T06:40:43.717Z,7.48
2024-02-06T06:43:11.134Z,7.47
2024-02-06T06:45:37.882Z,7.45
2024-02-06T06:48:05.588Z,7.46
2024-02-06T06:50:32.714Z,7.49
2024-02-06T06:53:00.651Z,7.38
2024-02-06T06:55:27.493Z,7.46
2024-02-06T06:57:54.476Z,7.46
2024-02-06T07:00:22.040Z,7.46
2024-02-06T07:02:49.109Z,7.60
2024-02-06T07:05:16.350Z,7.45
2024-02-06T07:07:43.394Z,7.56
2024-02-06T07:10:10.680Z,7.51
2024-02-06T07:12:37.847Z,7.59
2024-02-06T07:15:08.289Z,7.63
2024-02-06T07:17:37.620Z,7.50
2024-02-06T07:20:05.107Z,7.63
2024-02-06T07:22:35.016Z,7.65
2024-02-06T07:25:02.235Z,7.72
2024-02-06T07:27:29.065Z,7.68
2024-02-06T07:29:55.870Z,7.63
2024-02-06T07:32:22.599Z,7.69
2024-02-06T07:34:50.141Z,7.82
2024-02-06T07:37:17.044Z,7.73
2024-02-06T07:39:43.884Z,7.78
2024-02-06T07:42:10.647Z,7.67
2024-02-06T07:44:37.398Z,7.75
2024-02-06T07:47:04.428Z,7.79
2024-02-06T07:49:31.322Z,7.85
2024-02-06T07:51:58.395Z,7.86
2024-02-06T07:54:25.232Z,7.84
2024-02-06T07:56:52.919Z,7.93
2024-02-06T07:59:19.673Z,7.98
2024-02-06T08:01:47.032Z,7.95
2024-02-06T08:04:14.495Z,8.09
2024-02-06T08:06:41.966Z,8.01
2024-02-06T08:09:09.487Z,8.12
2024-02-06T08:11:37.460Z,8.11
2024-02-06T08:14:05.066Z,7.96
2024-02-06T08:16:32.059Z,8.09
2024-02-06T08:18:59.046Z,7.88
2024-02-06T08:21:26.222Z,8.07
2024-02-06T08:23:53.139Z,8.08
2024-02-06T08:26:20.623Z,8.13
2024-02-06T08:28:47.556Z,8.20
2024-02-06T08:31:15.239Z,8.28
2024-02-06T08:33:46.106Z,8.31
2024-02-06T08:36:16.571Z,8.49
2024-02-06T08:38:44.393Z,8.51
2024-02-06T08:41:11.248Z,8.54
2024-02-06T08:43:46.073Z,8.58
2024-02-06T08:46:19.749Z,8.71
2024-02-06T08:48:46.923Z,8.74
2024-02-06T08:51:13.701Z,8.67
2024-02-06T08:53:40.815Z,8.78
2024-02-06T08:56:09.011Z,8.78
2024-02-06T08:58:39.324Z,8.69
2024-02-06T09:01:07.643Z,8.69
2024-02-06T09:03:35.299Z,8.57
2024-02-06T09:06:02.269Z,8.53
2024-02-06T09:08:29.166Z,8.61
2024-02-06T09:10:56.067Z,8.60
2024-02-06T09:13:25.919Z,8.58
2024-02-06T09:15:52.982Z,8.66
2024-02-06T09:18:21.620Z,8.61
2024-02-06T09:20:49.882Z,8.65
2024-02-06T09:23:16.650Z,8.60
2024-02-06T09:25:45.456Z,8.50
2024-02-06T09:28:12.426Z,8.54
2024-02-06T09:30:41.590Z,8.54
2024-02-06T09:33:08.746Z,8.54
2024-02-06T09:35:36.758Z,8.53
2024-02-06T09:38:04.009Z,8.64
2024-02-06T09:40:33.714Z,8.61
2024-02-06T09:43:01.157Z,8.61
2024-02-06T09:45:28.567Z,8.59
2024-02-06T09:47:55.459Z,8.67
2024-02-06T09:50:22.337Z,8.82
2024-02-06T09:52:50.446Z,8.76
2024-02-06T09:55:19.945Z,8.83
2024-02-06T09:57:51.336Z,8.86
2024-02-06T10:00:20.489Z,8.89
2024-02-06T10:02:48.906Z,8.98
2024-02-06T10:05:22.954Z,9.01
2024-02-06T10:07:50.626Z,9.15
2024-02-06T10:10:19.828Z,9.20
2024-02-06T10:12:46.902Z,9.39
2024-02-06T10:15:26.083Z,9.25
2024-02-06T10:17:55.116Z,9.50
2024-02-06T10:20:21.961Z,9.64
2024-02-06T10:22:48.784Z,9.60
2024-02-06T10:25:17.612Z,9.62
2024-02-06T10:27:44.590Z,9.70
2024-02-06T10:30:12.172Z,9.71
2024-02-06T10:32:39.847Z,9.72
2024-02-06T10:35:09.440Z,9.70
2024-02-06T10:37:38.748Z,9.72
2024-02-06T10:40:09.234Z,9.76
2024-02-06T10:43:09.112Z,9.69
2024-02-06T10:45:23.652Z,9.86
2024-02-06T10:47:57.930Z,9.75
2024-02-06T10:50:25.084Z,9.67
2024-02-06T10:52:52.130Z,9.73
2024-02-06T10:55:18.935Z,9.65
2024-02-06T10:57:47.252Z,9.68
2024-02-06T11:00:20.551Z,9.69
2024-02-06T11:02:54.493Z,9.83
2024-02-06T11:05:50.363Z,9.90
2024-02-06T11:08:20.271Z,9.93
2024-02-06T11:10:48.918Z,9.92
2024-02-06T11:13:23.622Z,9.88
2024-02-06T11:15:56.048Z,9.85
2024-02-06T11:18:28.009Z,9.92
2024-02-06T11:20:56.865Z,9.91
2024-02-06T11:23:24.269Z,9.96
2024-02-06T11:25:51.419Z,10.04
2024-02-06T11:28:21.310Z,9.91
2024-02-06T11:30:48.403Z,9.89
2024-02-06T11:33:16.462Z,10.07
2024-02-06T11:35:43.492Z,10.06
2024-02-06T11:38:13.812Z,10.18
2024-02-06T11:40:43.288Z,10.25
2024-02-06T11:43:10.248Z,10.25
2024-02-06T11:45:38.947Z,10.24
2024-02-06T11:48:08.755Z,10.26
2024-02-06T11:50:48.057Z,10.29
2024-02-06T11:53:15.882Z,10.21
2024-02-06T11:55:43.829Z,10.03
2024-02-06T11:58:11.653Z,9.99
2024-02-06T12:00:39.246Z,10.03
2024-02-06T12:03:07.581Z,10.04
2024-02-06T12:05:44.416Z,10.06
2024-02-06T12:08:17.077Z,9.92
2024-02-06T12:10:44.908Z,10.03
2024-02-06T12:13:13.106Z,10.01
2024-02-06T12:15:41.276Z,9.92
2024-02-06T12:18:12.632Z,9.83
2024-02-06T12:20:39.579Z,9.72
2024-02-06T12:23:08.479Z,9.61
2024-02-06T12:25:37.713Z,9.74
2024-02-06T12:28:09.577Z,9.77
2024-02-06T12:30:36.327Z,9.80
2024-02-06T12:33:03.747Z,9.80
2024-02-06T12:35:30.834Z,9.90
2024-02-06T12:37:58.882Z,9.76
2024-02-06T12:40:33.831Z,9.85
2024-02-06T12:43:05.651Z,9.89
2024-02-06T12:45:34.428Z,9.50
2024-02-06T12:48:01.889Z,9.73
2024-02-06T12:50:29.274Z,9.79
2024-02-06T12:52:56.998Z,9.82
2024-02-06T12:55:24.540Z,9.84
2024-02-06T12:57:58.359Z,9.89
2024-02-06T13:00:25.981Z,9.72
2024-02-06T13:03:03.401Z,9.79
2024-02-06T13:05:32.879Z,9.70
2024-02-06T13:08:10.386Z,9.70
2024-02-06T13:10:38.556Z,9.49
2024-02-06T13:13:06.685Z,9.75
2024-02-06T13:15:34.826Z,9.90
2024-02-06T13:18:02.616Z,9.90
2024-02-06T13:20:34.199Z,9.94
2024-02-06T13:23:12.283Z,10.01
2024-02-06T13:25:39.923Z,10.17
2024-02-06T13:28:07.100Z,10.18
2024-02-06T13:30:36.577Z,10.24
2024-02-06T13:33:04.990Z,10.13
2024-02-06T13:35:32.354Z,10.20
2024-02-06T13:38:02.466Z,10.02
2024-02-06T13:40:29.769Z,10.03
2024-02-06T13:42:56.831Z,10.05
2024-02-06T13:45:24.319Z,10.06
2024-02-06T13:47:51.236Z,10.09
2024-02-06T13:50:19.503Z,9.99
2024-02-06T13:52:46.504Z,10.01
2024-02-06T13:55:15.254Z,10.05
2024-02-06T13:57:42.609Z,9.87
2024-02-06T14:00:09.935Z,9.95
2024-02-06T14:02:37.175Z,9.95
2024-02-06T14:05:05.633Z,9.96
2024-02-06T14:07:32.993Z,9.98
2024-02-06T14:09:59.875Z,9.96
2024-02-06T14:12:32.563Z,9.95
2024-02-06T14:15:07.728Z,9.88
2024-02-06T14:17:35.928Z,9.97
2024-02-06T14:20:03.190Z,9.90
2024-02-06T14:22:30.533Z,9.94
2024-02-06T14:24:57.454Z,9.97
2024-02-06T14:27:25.724Z,9.91
2024-02-06T14:29:52.670Z,9.90
2024-02-06T14:32:19.564Z,9.79
2024-02-06T14:34:46.443Z,9.79
2024-02-06T14:37:13.714Z,9.85
2024-02-06T14:39:40.943Z,9.77
2024-02-06T14:42:08.072Z,9.77
2024-02-06T14:44:41.302Z,9.61
2024-02-06T14:47:14.496Z,9.69
2024-02-06T14:49:42.170Z,9.63
2024-02-06T14:52:09.281Z,9.68
2024-02-06T14:54:36.209Z,9.58
2024-02-06T14:57:03.248Z,9.63
2024-02-06T14:59:30.789Z,9.62
2024-02-06T15:01:57.798Z,9.43
2024-02-06T15:04:24.841Z,9.55
2024-02-06T15:06:51.761Z,9.49
2024-02-06T15:09:18.869Z,9.42
2024-02-06T15:11:45.836Z,9.57
2024-02-06T15:14:12.862Z,9.35
2024-02-06T15:16:41.904Z,9.49
2024-02-06T15:19:09.577Z,9.52
2024-02-06T15:21:37.032Z,9.43
2024-02-06T15:24:04.118Z,9.48
2024-02-06T15:26:31.554Z,9.41
2024-02-06T15:28:58.692Z,9.40
2024-02-06T15:31:25.605Z,9.44
2024-02-06T15:33:56.514Z,9.40
2024-02-06T15:36:23.496Z,9.38
2024-02-06T15:38:50.445Z,9.39
2024-02-06T15:41:17.550Z,9.35
2024-02-06T15:43:44.481Z,9.34
2024-02-06T15:46:12.319Z,9.28
2024-02-06T15:48:47.129Z,9.32
2024-02-06T15:51:14.639Z,9.33
2024-02-06T15:53:42.320Z,9.32
2024-02-06T15:56:09.822Z,9.21
2024-02-06T15:58:37.117Z,9.30
2024-02-06T16:01:04.927Z,9.09
2024-02-06T16:03:32.363Z,9.20
2024-02-06T16:06:00.720Z,9.19
2024-02-06T16:08:28.284Z,9.16
2024-02-06T16:10:55.386Z,9.14
2024-02-06T16:13:24.025Z,9.08
2024-02-06T16:15:51.616Z,9.06
2024-02-06T16:18:19.444Z,9.06
2024-02-06T16:20:47.345Z,9.00
2024-02-06T16:23:14.367Z,9.07
2024-02-06T16:25:41.329Z,8.94
2024-02-06T16:28:08.533Z,8.88
2024-02-06T16:30:35.367Z,9.02
2024-02-06T16:33:02.306Z,9.03
2024-02-06T16:35:29.158Z,9.00
2024-02-06T16:37:56.426Z,9.05
2024-02-06T16:40:23.515Z,8.96
2024-02-06T16:42:50.741Z,8.88
2024-02-06T16:45:17.971Z,9.01
2024-02-06T16:47:44.808Z,9.02
2024-02-06T16:50:17.839Z,9.05
2024-02-06T16:52:45.700Z,8.95
2024-02-06T16:55:13.240Z,9.00
2024-02-06T16:57:40.062Z,9.02
2024-02-06T17:00:07.462Z,8.98
2024-02-06T17:02:37.432Z,8.99
2024-02-06T17:05:14.394Z,8.95
2024-02-06T17:07:45.728Z,8.89
2024-02-06T17:10:18.367Z,8.88
2024-02-06T17:12:51.367Z,8.89
2024-02-06T17:15:23.027Z,8.88
2024-02-06T17:18:05.696Z,8.83
2024-02-06T17:20:38.204Z,8.85
2024-02-06T17:23:14.007Z,8.88
2024-02-06T17:25:45.419Z,8.91
2024-02-06T17:28:19.854Z,8.94
2024-02-06T17:30:55.113Z,8.92
2024-02-06T17:33:26.408Z,8.89
2024-02-06T17:36:04.955Z,8.90
2024-02-06T17:38:36.457Z,8.92
2024-02-06T17:41:14.412Z,8.87
2024-02-06T17:43:50.355Z,8.56
2024-02-06T17:46:21.394Z,8.81
2024-02-06T17:48:56.753Z,8.85
2024-02-06T17:51:34.882Z,8.85
2024-02-06T17:54:05.236Z,8.86
2024-02-06T17:56:40.621Z,8.84
2024-02-06T17:59:13.402Z,8.86
2024-02-06T18:01:42.225Z,8.63
2024-02-06T18:04:15.735Z,8.82
2024-02-06T18:06:49.044Z,8.79
2024-02-06T18:09:24.158Z,8.77
2024-02-06T18:11:53.496Z,8.73
2024-02-06T18:14:26.331Z,8.74
2024-02-06T18:17:18.921Z,8.78
2024-02-06T18:19:54.401Z,8.78
2024-02-06T18:22:26.301Z,8.82
2024-02-06T18:25:01.086Z,8.77
2024-02-06T18:27:33.615Z,8.83
2024-02-06T18:30:05.144Z,8.79
2024-02-06T18:32:39.369Z,8.84
2024-02-06T18:35:10.545Z,8.84
2024-02-06T18:37:42.722Z,8.98
2024-02-06T18:40:25.502Z,8.92
2024-02-06T18:42:58.387Z,8.85
2024-02-06T18:45:29.808Z,8.87
2024-02-06T18:48:01.242Z,8.84
2024-02-06T18:50:35.897Z,8.87
2024-02-06T18:53:07.170Z,8.90
2024-02-06T18:55:39.142Z,8.83
2024-02-06T18:58:15.309Z,8.85
2024-02-06T19:00:48.629Z,8.83
2024-02-06T19:03:21.327Z,8.85
2024-02-06T19:05:52.902Z,8.84
2024-02-06T19:08:30.491Z,8.84
2024-02-06T19:11:05.658Z,8.85
2024-02-06T19:13:38.110Z,8.86
2024-02-06T19:16:15.615Z,8.66
2024-02-06T19:18:51.066Z,8.92
2024-02-06T19:21:29.322Z,8.89
2024-02-06T19:24:02.657Z,8.79
2024-02-06T19:26:37.199Z,8.81
2024-02-06T19:29:10.054Z,8.80
2024-02-06T19:31:46.652Z,8.76
2024-02-06T19:34:18.742Z,8.76
2024-02-06T19:36:52.815Z,8.75
2024-02-06T19:39:25.498Z,8.71
2024-02-06T19:41:59.309Z,8.75
2024-02-06T19:44:33.617Z,8.73
2024-02-06T19:47:08.643Z,8.70
2024-02-06T19:49:48.955Z,8.68
2024-02-06T19:52:31.104Z,8.68
2024-02-06T19:55:02.832Z,8.69
2024-02-06T19:57:36.580Z,8.74
2024-02-06T20:00:13.396Z,8.80
2024-02-06T20:02:52.142Z,8.80
2024-02-06T20:05:25.716Z,8.80
2024-02-06T20:07:57.745Z,8.76
2024-02-06T20:10:28.535Z,8.69
2024-02-06T20:12:59.319Z,8.72
2024-02-06T20:15:41.732Z,8.70
2024-02-06T20:18:14.805Z,8.71
2024-02-06T20:20:44.954Z,8.63
2024-02-06T20:23:15.559Z,8.68
2024-02-06T20:25:45.970Z,8.75
2024-02-06T20:28:19.921Z,8.73
2024-02-06T20:31:04.852Z,8.77
2024-02-06T20:33:32.566Z,8.73
2024-02-06T20:35:59.439Z,8.79
2024-02-06T20:38:27.378Z,8.87
2024-02-06T20:40:55.179Z,8.85
2024-02-06T20:43:22.331Z,8.90
2024-02-06T20:45:49.258Z,8.97
2024-02-06T20:48:18.639Z,8.86
2024-02-06T20:50:45.775Z,8.94
2024-02-06T20:53:12.767Z,8.94
2024-02-06T20:55:39.668Z,8.81
2024-02-06T20:58:06.838Z,8.93
2024-02-06T21:00:33.589Z,9.00
2024-02-06T21:03:01.634Z,8.90
2024-02-06T21:05:28.846Z,8.94
2024-02-06T21:07:56.776Z,8.96
2024-02-06T21:10:23.769Z,8.94
2024-02-06T21:12:53.779Z,8.88
2024-02-06T21:15:20.698Z,8.85
2024-02-06T21:17:48.134Z,8.84
2024-02-06T21:20:15.838Z,8.98
2024-02-06T21:22:43.065Z,8.86
2024-02-06T21:25:10.353Z,8.94
2024-02-06T21:27:38.018Z,8.87
2024-02-06T21:30:07.057Z,8.88
2024-02-06T21:32:33.994Z,8.94
2024-02-06T21:35:01.073Z,8.95
2024-02-06T21:37:28.043Z,8.93
2024-02-06T21:39:58.402Z,8.92
2024-02-06T21:42:28.940Z,8.88
2024-02-06T21:44:55.879Z,8.93
2024-02-06T21:47:22.912Z,8.91
2024-02-06T21:49:51.152Z,8.90
2024-02-06T21:52:18.907Z,8.86
2024-02-06T21:54:46.132Z,8.92
2024-02-06T21:57:13.229Z,8.92
2024-02-06T21:59:46.152Z,8.92
2024-02-06T22:02:14.794Z,8.84
2024-02-06T22:04:41.674Z,8.92
2024-02-06T22:07:12.014Z,8.86
2024-02-06T22:09:38.833Z,8.92
2024-02-06T22:12:06.300Z,8.80
2024-02-06T22:14:33.138Z,8.88
2024-02-06T22:17:00.336Z,8.82
2024-02-06T22:19:27.890Z,9.01
2024-02-06T22:21:55.155Z,8.97
2024-02-06T22:24:25.436Z,8.95
2024-02-06T22:26:53.988Z,8.98
2024-02-06T22:29:21.810Z,8.85
2024-02-06T22:31:49.087Z,9.02
2024-02-06T22:34:17.869Z,9.00
2024-02-06T22:36:45.159Z,8.86
2024-02-06T22:39:12.244Z,8.89
2024-02-06T22:41:39.154Z,8.80
2024-02-06T22:44:06.821Z,8.97
2024-02-06T22:46:35.055Z,9.02
2024-02-06T22:49:02.725Z,9.02
2024-02-06T22:51:32.379Z,8.88
2024-02-06T22:54:07.493Z,8.91
2024-02-06T22:56:34.329Z,8.87
2024-02-06T22:59:01.243Z,8.98
2024-02-06T23:01:28.571Z,8.86
2024-02-06T23:03:55.586Z,8.95
2024-02-06T23:06:22.507Z,8.95
2024-02-06T23:08:49.494Z,8.97
2024-02-06T23:11:16.353Z,8.93
2024-02-06T23:13:43.230Z,8.92
2024-02-06T23:16:10.822Z,9.02
2024-02-06T23:18:38.442Z,8.98
2024-02-06T23:21:05.556Z,9.01
2024-02-06T23:23:32.478Z,9.01
2024-02-06T23:25:59.495Z,9.18
2024-02-06T23:28:26.334Z,9.11
2024-02-06T23:30:53.143Z,9.15
2024-02-06T23:33:19.962Z,9.16
2024-02-06T23:35:47.009Z,9.18
2024-02-06T23:38:13.915Z,9.25
2024-02-06T23:40:41.115Z,9.26
2024-02-06T23:43:07.869Z,9.30
2024-02-06T23:45:35.203Z,9.27
2024-02-06T23:48:01.969Z,9.13
2024-02-06T23:50:28.841Z,9.21
2024-02-06T23:52:55.708Z,9.15
2024-02-06T23:55:22.917Z,9.28
2024-02-06T23:57:49.897Z,9.29
